Time;durP1;ratioP1;P1;durP2;ratioP2;P2;SDS_P1;SDS_P2;PMS_P1;PMS_P2;Temp;Humidity;BMP_temperature;BMP_pressure;BME280_temperature;BME280_humidity;BME280_pressure;Samples;Min_cycle;Max_cycle;Signal;HPM_P1;HPM_P2
2023/01/17 00:00:36;;;;;;;;;;;;;;;15.89;75.10;99641.81;7405384;19;1605;-79
2023/01/17 00:03:07;;;;;;;;;;;;;;;15.90;75.33;99664.00;7407583;19;1483;-79
2023/01/17 00:11:02;;;;;;;;;;;;;;;16.04;75.06;99660.06;7409495;19;1356;-79
2023/01/17 00:13:44;;;;;;;;;;;;;;;15.98;75.13;99660.63;7404526;19;1720;-79
2023/01/17 00:16:15;;;;;;;;;;;;;;;15.93;74.92;99673.53;7406291;19;1863;-79
2023/01/17 00:26:01;;;;;;;;;;;;;;;15.90;75.09;99680.00;7408423;19;1542;-79
2023/01/17 01:35:13;;;;;;;;;;;;;;;15.55;74.40;99574.78;7405325;19;1842;-79
2023/01/17 01:37:41;;;;;;;;;;;;;;;15.56;74.49;99580.94;7404849;19;1383;-79
2023/01/17 01:40:10;;;;;;;;;;;;;;;15.55;74.63;99577.44;7405605;19;1820;-79
2023/01/17 01:42:39;;;;;;;;;;;;;;;15.54;74.54;99580.25;7405538;19;1577;-79
2023/01/17 01:45:17;;;;;;;;;;;;;;;15.64;74.13;99583.75;7405966;19;1567;-79
2023/01/17 01:47:45;;;;;;;;;;;;;;;16.17;72.35;99569.03;7403217;19;1396;-79
2023/01/17 01:50:24;;;;;;;;;;;;;;;16.88;70.13;99539.06;7404883;19;1591;-79
2023/01/17 01:52:55;;;;;;;;;;;;;;;17.70;67.49;99537.06;7405616;19;1586;-79
2023/01/17 01:55:27;;;;;;;;;;;;;;;17.92;66.78;99540.25;7403338;19;1852;-79
2023/01/17 01:58:04;;;;;;;;;;;;;;;18.15;66.12;99530.69;7405340;19;1841;-79
2023/01/17 02:00:37;;;;;;;;;;;;;;;18.34;65.66;99536.78;7404460;19;1697;-79
2023/01/17 02:03:09;;;;;;;;;;;;;;;18.34;65.87;99528.75;7403273;19;1751;-79
2023/01/17 02:05:44;;;;;;;;;;;;;;;18.35;65.89;99501.00;7405247;19;1574;-79
2023/01/17 02:08:16;;;;;;;;;;;;;;;18.27;66.13;99518.69;7400833;19;1788;-79
2023/01/17 02:10:47;;;;;;;;;;;;;;;18.20;66.28;99512.28;7404367;19;1357;-79
2023/01/17 02:13:17;;;;;;;;;;;;;;;18.05;66.82;99538.00;7405306;19;1801;-79
2023/01/17 02:15:53;;;;;;;;;;;;;;;17.46;68.59;99524.38;7400266;19;1846;-79
2023/01/17 02:18:31;;;;;;;;;;;;;;;16.92;70.23;99524.41;7404778;19;1530;-79
2023/01/17 02:21:18;;;;;;;;;;;;;;;16.56;71.03;99529.69;7404693;19;1721;-79
2023/01/17 02:23:59;;;;;;;;;;;;;;;16.39;71.87;99525.13;7400709;19;1605;-79
2023/01/17 02:26:43;;;;;;;;;;;;;;;16.28;71.83;99535.03;7403254;19;1471;-79
2023/01/17 02:32:14;;;;;;;;;;;;;;;16.16;72.06;99557.53;7401632;19;1676;-79
2023/01/17 02:34:48;;;;;;;;;;;;;;;16.14;72.42;99538.19;7404762;19;1854;-79
2023/01/17 02:37:21;;;;;;;;;;;;;;;16.08;72.43;99520.09;7403570;19;1459;-79
2023/01/17 02:39:55;;;;;;;;;;;;;;;16.02;72.17;99518.84;7402481;19;1732;-79
2023/01/17 02:42:27;;;;;;;;;;;;;;;16.02;72.33;99513.53;7404096;19;1690;-79
2023/01/17 02:44:56;;;;;;;;;;;;;;;15.98;72.35;99540.63;7402772;19;1408;-79
2023/01/17 02:47:28;;;;;;;;;;;;;;;15.98;72.87;99538.81;7402983;19;1689;-79
2023/01/17 02:50:00;;;;;;;;;;;;;;;16.18;71.91;99542.22;7400590;19;1431;-79
2023/01/17 02:52:34;;;;;;;;;;;;;;;17.35;68.21;99522.78;7403633;19;1003;-79
2023/01/17 02:55:15;;;;;;;;;;;;;;;18.48;64.68;99526.31;7400891;19;1841;-80
2023/01/17 02:57:52;;;;;;;;;;;;;;;18.92;63.82;99511.88;7404127;19;1366;-79
2023/01/17 03:00:23;;;;;;;;;;;;;;;19.11;63.48;99497.31;7403180;19;1376;-79
2023/01/17 03:02:59;;;;;;;;;;;;;;;19.24;63.02;99494.13;7403792;19;1595;-79
2023/01/17 03:05:30;;;;;;;;;;;;;;;19.34;62.62;99505.53;7403005;19;1585;-79
2023/01/17 03:07:59;;;;;;;;;;;;;;;19.42;62.39;99500.16;7403419;19;1344;-79
2023/01/17 03:10:28;;;;;;;;;;;;;;;19.48;62.52;99512.88;7403201;19;1593;-79
2023/01/17 03:12:59;;;;;;;;;;;;;;;19.41;62.78;99493.09;7403140;19;1797;-79
2023/01/17 03:15:27;;;;;;;;;;;;;;;19.46;62.81;99488.06;7405438;19;1979;-79
2023/01/17 03:18:00;;;;;;;;;;;;;;;19.50;62.86;99487.72;7411052;19;1582;-79
2023/01/17 03:20:28;;;;;;;;;;;;;;;19.60;62.27;99477.69;7407006;19;1572;-79
2023/01/17 03:22:56;;;;;;;;;;;;;;;19.72;62.08;99488.91;7408143;19;1376;-79
2023/01/17 03:25:24;;;;;;;;;;;;;;;19.39;62.84;99481.72;7410303;19;1742;-79
2023/01/17 03:27:53;;;;;;;;;;;;;;;19.32;63.38;99485.22;7410750;19;1510;-79
2023/01/17 03:30:21;;;;;;;;;;;;;;;19.50;62.82;99487.72;7409414;19;1669;-79
2023/01/17 03:32:50;;;;;;;;;;;;;;;19.53;62.54;99482.88;7408899;19;1245;-79
2023/01/17 03:35:21;;;;;;;;;;;;;;;19.56;62.45;99457.56;7409316;19;1849;-79
2023/01/17 03:37:49;;;;;;;;;;;;;;;19.54;62.24;99448.88;7407011;19;1308;-79
2023/01/17 03:40:17;;;;;;;;;;;;;;;19.59;62.17;99443.81;7409632;19;1824;-79
2023/01/17 03:42:46;;;;;;;;;;;;;;;19.51;62.48;99443.81;7409878;19;1491;-79
2023/01/17 03:45:14;;;;;;;;;;;;;;;19.47;62.52;99436.13;7410371;19;1619;-79
2023/01/17 03:47:43;;;;;;;;;;;;;;;19.56;62.44;99454.88;7410060;19;1594;-79
2023/01/17 03:50:12;;;;;;;;;;;;;;;19.55;62.70;99447.84;7408929;19;1407;-79
2023/01/17 03:52:43;;;;;;;;;;;;;;;19.58;62.48;99444.84;7409479;19;1388;-79
2023/01/17 03:55:11;;;;;;;;;;;;;;;19.58;62.63;99450.19;7405911;19;1840;-79
2023/01/17 03:57:39;;;;;;;;;;;;;;;19.61;62.28;99463.25;7409933;19;1665;-79
2023/01/17 04:00:09;;;;;;;;;;;;;;;19.61;62.40;99433.75;7406989;19;1594;-79
2023/01/17 04:02:37;;;;;;;;;;;;;;;19.66;62.39;99444.81;7408585;19;1404;-79
2023/01/17 04:05:05;;;;;;;;;;;;;;;19.68;62.41;99445.47;7408148;19;1662;-79
2023/01/17 04:07:34;;;;;;;;;;;;;;;19.74;62.11;99458.22;7413242;19;1258;-79
2023/01/17 04:10:05;;;;;;;;;;;;;;;19.81;61.90;99459.19;7411178;19;1428;-80
2023/01/17 04:12:33;;;;;;;;;;;;;;;19.77;61.94;99457.84;7423890;19;1399;-79
2023/01/17 04:15:01;;;;;;;;;;;;;;;19.85;61.71;99463.19;7408033;19;1534;-78
2023/01/17 04:17:30;;;;;;;;;;;;;;;19.80;61.69;99462.91;7407450;19;1650;-79
2023/01/17 04:19:58;;;;;;;;;;;;;;;19.85;61.91;99487.34;7407234;19;1535;-79
2023/01/17 04:22:26;;;;;;;;;;;;;;;19.86;61.62;99472.94;7407956;19;1317;-79
2023/01/17 04:24:54;;;;;;;;;;;;;;;19.95;61.36;99476.41;7407935;19;1709;-79
2023/01/17 04:27:25;;;;;;;;;;;;;;;19.98;61.26;99486.81;7407574;19;1551;-79
2023/01/17 04:29:53;;;;;;;;;;;;;;;20.01;61.09;99496.34;7405632;19;1401;-79
2023/01/17 04:32:22;;;;;;;;;;;;;;;20.08;60.92;99491.97;7408554;19;1471;-80
2023/01/17 04:34:50;;;;;;;;;;;;;;;20.12;60.76;99495.16;7406004;19;1673;-79
2023/01/17 04:37:18;;;;;;;;;;;;;;;20.05;61.32;99495.84;7406560;19;1861;-79
2023/01/17 04:39:46;;;;;;;;;;;;;;;19.95;61.49;99491.69;7407044;19;1554;-79
2023/01/17 04:42:14;;;;;;;;;;;;;;;19.93;61.31;99494.53;7407304;19;1623;-79
2023/01/17 04:44:45;;;;;;;;;;;;;;;19.58;62.58;99493.94;7404297;19;1658;-79
2023/01/17 04:47:14;;;;;;;;;;;;;;;18.77;64.69;99481.34;7402393;19;1499;-79
2023/01/17 04:49:42;;;;;;;;;;;;;;;18.57;65.42;99481.63;7411602;19;1546;-79
2023/01/17 04:52:10;;;;;;;;;;;;;;;19.00;64.10;99477.06;7408517;19;1198;-79
2023/01/17 04:54:38;;;;;;;;;;;;;;;19.39;63.16;99486.25;7405053;19;1768;-79
2023/01/17 04:57:07;;;;;;;;;;;;;;;19.45;62.52;99481.03;7404283;19;1851;-79
2023/01/17 04:59:35;;;;;;;;;;;;;;;19.34;62.74;99476.03;7405890;19;1565;-79
2023/01/17 05:02:06;;;;;;;;;;;;;;;19.15;63.56;99479.06;7405244;19;1524;-79
2023/01/17 05:04:34;;;;;;;;;;;;;;;19.17;63.77;99474.38;7406185;19;1685;-79
2023/01/17 05:07:02;;;;;;;;;;;;;;;19.03;63.78;99476.69;7408108;19;1321;-79
2023/01/17 05:09:30;;;;;;;;;;;;;;;19.06;63.95;99467.50;7406386;19;1372;-79
2023/01/17 05:11:59;;;;;;;;;;;;;;;19.00;63.90;99473.50;7406615;19;1423;-79
2023/01/17 05:14:27;;;;;;;;;;;;;;;18.99;63.96;99469.16;7405545;19;1528;-79
2023/01/17 05:16:56;;;;;;;;;;;;;;;19.11;63.88;99477.72;7404246;19;1847;-79
2023/01/17 05:19:27;;;;;;;;;;;;;;;19.28;63.43;99490.13;7405811;19;1298;-79
2023/01/17 05:22:02;;;;;;;;;;;;;;;19.35;63.14;99501.00;7406099;19;1128;-79
2023/01/17 05:24:31;;;;;;;;;;;;;;;19.47;62.46;99483.53;7401916;19;1541;-79
2023/01/17 05:27:01;;;;;;;;;;;;;;;19.47;62.77;99515.72;7393688;19;1416;-79
2023/01/17 05:29:30;;;;;;;;;;;;;;;19.31;63.30;99505.84;7398664;19;1157;-79
2023/01/17 05:31:58;;;;;;;;;;;;;;;19.17;63.64;99523.44;7394300;19;1191;-79
2023/01/17 05:34:29;;;;;;;;;;;;;;;19.19;63.94;99537.50;7397747;19;1728;-79
2023/01/17 05:36:57;;;;;;;;;;;;;;;19.19;64.05;99548.22;7403018;19;1872;-79
2023/01/17 05:39:26;;;;;;;;;;;;;;;19.19;64.12;99537.50;7399872;19;1720;-79
2023/01/17 05:41:54;;;;;;;;;;;;;;;19.23;63.74;99549.56;7403555;19;1475;-79
2023/01/17 05:44:22;;;;;;;;;;;;;;;19.13;64.06;99556.09;7405968;19;1214;-79
2023/01/17 05:46:50;;;;;;;;;;;;;;;19.20;63.91;99549.06;7403440;19;1491;-79
2023/01/17 05:49:18;;;;;;;;;;;;;;;19.02;63.74;99566.13;7409759;19;1707;-79
2023/01/17 05:51:49;;;;;;;;;;;;;;;19.19;63.15;99560.78;7403804;19;1078;-79
2023/01/17 05:54:18;;;;;;;;;;;;;;;19.15;63.12;99570.16;7398955;19;1440;-79
2023/01/17 05:56:46;;;;;;;;;;;;;;;19.17;63.43;99557.44;7397398;19;1858;-79
2023/01/17 05:59:14;;;;;;;;;;;;;;;19.30;63.20;99562.28;7400590;19;1598;-79
2023/01/17 06:01:43;;;;;;;;;;;;;;;19.34;62.70;99569.84;7401722;19;1399;-79
2023/01/17 06:04:11;;;;;;;;;;;;;;;19.41;62.44;99578.88;7399618;19;1427;-79
2023/01/17 06:06:39;;;;;;;;;;;;;;;19.32;62.55;99568.31;7408700;19;1288;-79
2023/01/17 06:09:10;;;;;;;;;;;;;;;19.25;62.95;99601.16;7403066;19;1528;-79
2023/01/17 06:11:38;;;;;;;;;;;;;;;19.18;63.08;99591.25;7403559;19;1269;-79
2023/01/17 06:14:07;;;;;;;;;;;;;;;19.13;62.60;99569.50;7393766;19;1388;-79
2023/01/17 06:16:35;;;;;;;;;;;;;;;19.14;62.61;99563.97;7399183;19;1848;-79
2023/01/17 06:19:03;;;;;;;;;;;;;;;19.20;62.55;99568.66;7403731;19;1464;-79
2023/01/17 06:21:31;;;;;;;;;;;;;;;19.32;62.47;99579.91;7403448;19;959;-79
2023/01/17 06:24:00;;;;;;;;;;;;;;;19.30;62.34;99563.16;7400387;19;1530;-79
2023/01/17 06:26:30;;;;;;;;;;;;;;;19.45;62.16;99569.50;7403564;19;1258;-79
2023/01/17 06:28:59;;;;;;;;;;;;;;;19.47;62.09;99567.50;7403211;19;1428;-79
2023/01/17 06:31:27;;;;;;;;;;;;;;;19.36;62.29;99551.75;7402907;19;1487;-79
2023/01/17 06:33:55;;;;;;;;;;;;;;;19.24;62.64;99550.41;7404240;19;1681;-78
2023/01/17 06:36:23;;;;;;;;;;;;;;;19.24;62.76;99542.38;7402687;19;1851;-79
2023/01/17 06:38:52;;;;;;;;;;;;;;;19.24;62.78;99553.09;7408729;19;1661;-79
2023/01/17 06:41:22;;;;;;;;;;;;;;;19.18;62.63;99549.25;7403013;19;1403;-79
2023/01/17 06:43:53;;;;;;;;;;;;;;;19.16;63.04;99539.66;7400846;19;1539;-79
2023/01/17 06:46:24;;;;;;;;;;;;;;;19.14;62.52;99539.00;7401862;19;1668;-79
2023/01/17 06:48:52;;;;;;;;;;;;;;;19.29;62.11;99553.41;7399511;19;1476;-80
2023/01/17 06:51:21;;;;;;;;;;;;;;;19.32;62.32;99550.41;7401445;19;1336;-79
2023/01/17 06:53:49;;;;;;;;;;;;;;;19.15;62.26;99565.63;7401436;19;1426;-79
2023/01/17 06:56:17;;;;;;;;;;;;;;;19.22;62.58;99552.44;7400191;19;1853;-82
2023/01/17 06:58:46;;;;;;;;;;;;;;;19.31;62.46;99559.44;7396813;19;1380;-81
2023/01/17 07:01:17;;;;;;;;;;;;;;;19.68;62.01;99550.91;7400662;19;1825;-81
2023/01/17 07:03:45;;;;;;;;;;;;;;;19.99;61.51;99554.72;7399634;19;1654;-81
2023/01/17 07:06:13;;;;;;;;;;;;;;;19.46;63.24;99563.16;7403118;19;1254;-81
2023/01/17 07:08:42;;;;;;;;;;;;;;;18.79;65.02;99573.94;7402787;19;1401;-80
2023/01/17 07:11:10;;;;;;;;;;;;;;;18.82;65.48;99570.09;7402600;19;1598;-81
2023/01/17 07:13:39;;;;;;;;;;;;;;;19.20;65.04;99567.81;7402304;19;1277;-81
2023/01/17 07:16:07;;;;;;;;;;;;;;;19.73;63.49;99569.19;7402771;19;1829;-80
2023/01/17 07:18:38;;;;;;;;;;;;;;;19.58;63.65;99573.53;7402831;19;1320;-81
2023/01/17 07:21:07;;;;;;;;;;;;;;;18.97;65.93;99572.97;7400932;19;1440;-80
2023/01/17 07:23:35;;;;;;;;;;;;;;;18.77;66.53;99577.75;7400856;19;1313;-81
2023/01/17 07:26:03;;;;;;;;;;;;;;;19.12;65.63;99597.28;7403205;19;1585;-81
2023/01/17 07:28:31;;;;;;;;;;;;;;;19.55;64.62;99565.81;7401920;19;1468;-81
2023/01/17 07:31:00;;;;;;;;;;;;;;;19.85;64.01;99583.91;7398180;19;1581;-81
2023/01/17 07:33:28;;;;;;;;;;;;;;;19.24;65.67;99571.88;7402032;19;1314;-81
2023/01/17 07:35:59;;;;;;;;;;;;;;;18.80;67.06;99583.66;7398430;19;1657;-81
2023/01/17 07:38:27;;;;;;;;;;;;;;;19.05;66.27;99579.19;7398844;19;1838;-80
2023/01/17 07:40:59;;;;;;;;;;;;;;;19.42;65.40;99567.16;7401992;19;1250;-81
2023/01/17 07:43:27;;;;;;;;;;;;;;;19.81;64.05;99571.03;7397388;19;1461;-80
2023/01/17 07:45:55;;;;;;;;;;;;;;;19.88;63.96;99573.88;7398483;19;1179;-80
2023/01/17 07:48:25;;;;;;;;;;;;;;;19.74;64.72;99580.78;7400118;19;1253;-80
2023/01/17 07:50:53;;;;;;;;;;;;;;;19.69;64.93;99578.53;7399916;19;1475;-81
2023/01/17 07:53:25;;;;;;;;;;;;;;;19.76;65.01;99574.22;7399097;19;1573;-81
2023/01/17 07:55:54;;;;;;;;;;;;;;;19.82;64.80;99557.44;7396499;19;1469;-81
2023/01/17 07:58:22;;;;;;;;;;;;;;;19.72;64.26;99564.84;7397038;19;1841;-80
2023/01/17 08:00:51;;;;;;;;;;;;;;;19.65;64.27;99575.34;7402032;19;1361;-78
2023/01/17 08:03:19;;;;;;;;;;;;;;;19.75;64.28;99583.25;7396900;19;1625;-79
2023/01/17 08:05:55;;;;;;;;;;;;;;;19.44;64.56;99575.88;7404014;19;1427;-78
2023/01/17 08:08:26;;;;;;;;;;;;;;;19.41;64.82;99575.38;7406552;19;1243;-78
2023/01/17 08:10:54;;;;;;;;;;;;;;;19.45;64.65;99582.91;7405995;19;1404;-78
2023/01/17 08:13:22;;;;;;;;;;;;;;;19.35;64.77;99587.59;7406925;19;1101;-78
2023/01/17 08:15:53;;;;;;;;;;;;;;;19.35;64.93;99568.84;7406363;19;1616;-78
2023/01/17 08:18:21;;;;;;;;;;;;;;;19.32;65.18;99577.22;7406198;19;1845;-78
2023/01/17 08:20:49;;;;;;;;;;;;;;;19.35;65.16;99574.19;7407277;19;1814;-78
2023/01/17 08:23:18;;;;;;;;;;;;;;;19.44;64.44;99581.25;7407338;19;1494;-78
2023/01/17 08:25:48;;;;;;;;;;;;;;;19.35;65.23;99571.50;7407595;19;1431;-79
2023/01/17 08:28:18;;;;;;;;;;;;;;;19.45;64.58;99568.66;7406125;19;1519;-79
2023/01/17 08:30:47;;;;;;;;;;;;;;;19.45;64.74;99577.53;7406411;19;1661;-79
2023/01/17 08:33:15;;;;;;;;;;;;;;;19.54;64.40;99575.72;7404866;19;1457;-79
2023/01/17 08:35:52;;;;;;;;;;;;;;;19.54;64.61;99570.34;7403109;19;1578;-78
2023/01/17 08:38:22;;;;;;;;;;;;;;;19.56;64.11;99567.50;7403181;19;1850;-79
2023/01/17 08:40:53;;;;;;;;;;;;;;;19.62;64.03;99589.13;7405635;19;1393;-79
2023/01/17 08:43:21;;;;;;;;;;;;;;;19.61;64.19;99567.81;7407019;19;1163;-80
2023/01/17 08:45:50;;;;;;;;;;;;;;;19.63;64.30;99587.28;7404115;19;1710;-80
2023/01/17 08:48:18;;;;;;;;;;;;;;;19.64;63.95;99578.22;7406065;19;1726;-79
2023/01/17 08:50:46;;;;;;;;;;;;;;;19.62;64.26;99577.56;7405193;19;1490;-79
2023/01/17 08:53:15;;;;;;;;;;;;;;;19.65;64.16;99577.22;7406390;19;1381;-78
2023/01/17 08:55:43;;;;;;;;;;;;;;;19.76;63.78;99584.94;7404719;19;1415;-79
2023/01/17 08:58:14;;;;;;;;;;;;;;;19.70;63.74;99582.09;7403855;19;1870;-79
2023/01/17 09:00:42;;;;;;;;;;;;;;;19.80;63.68;99570.19;7404994;19;1472;-79
2023/01/17 09:03:12;;;;;;;;;;;;;;;19.85;63.53;99567.81;7404992;19;1370;-79
2023/01/17 09:05:41;;;;;;;;;;;;;;;19.88;63.24;99571.19;7404701;19;1516;-79
2023/01/17 09:08:10;;;;;;;;;;;;;;;19.82;63.18;99552.09;7403018;19;1461;-80
2023/01/17 09:10:38;;;;;;;;;;;;;;;19.78;63.48;99555.28;7406805;19;1112;-80
2023/01/17 09:13:07;;;;;;;;;;;;;;;19.75;63.41;99556.44;7405770;19;1757;-80
2023/01/17 09:15:38;;;;;;;;;;;;;;;19.73;63.16;99553.09;7405402;19;1403;-80
2023/01/17 09:18:06;;;;;;;;;;;;;;;19.73;63.38;99545.03;7407268;19;1845;-80
2023/01/17 09:20:35;;;;;;;;;;;;;;;19.81;62.95;99545.03;7411808;19;1490;-79
2023/01/17 09:23:03;;;;;;;;;;;;;;;19.83;62.92;99537.66;7407547;19;1069;-79
2023/01/17 09:25:32;;;;;;;;;;;;;;;19.79;63.15;99544.34;7405060;19;1701;-79
2023/01/17 09:28:00;;;;;;;;;;;;;;;19.64;63.38;99529.97;7405168;19;1726;-79
2023/01/17 09:30:29;;;;;;;;;;;;;;;19.08;65.21;99533.31;7411801;19;1471;-79
2023/01/17 09:32:59;;;;;;;;;;;;;;;18.64;66.39;99530.88;7411017;19;1670;-79
2023/01/17 09:35:28;;;;;;;;;;;;;;;18.42;66.66;99536.78;7407433;19;1595;-79
2023/01/17 09:37:56;;;;;;;;;;;;;;;18.33;67.24;99548.50;7399179;19;1884;-80
2023/01/17 09:40:26;;;;;;;;;;;;;;;18.16;67.25;99547.56;7400899;19;1725;-80
2023/01/17 09:42:57;;;;;;;;;;;;;;;18.08;67.29;99546.53;7401203;19;1506;-80
2023/01/17 09:45:26;;;;;;;;;;;;;;;18.04;67.70;99544.31;7400668;19;1499;-80
2023/01/17 09:47:56;;;;;;;;;;;;;;;18.01;67.14;99550.00;7403768;19;1603;-79
2023/01/17 09:50:31;;;;;;;;;;;;;;;17.96;67.75;99553.13;7400339;19;1516;-79
2023/01/17 09:53:02;;;;;;;;;;;;;;;17.91;68.05;99543.94;7403719;19;1180;-79
2023/01/17 09:55:33;;;;;;;;;;;;;;;17.83;67.83;99542.88;7402315;19;1698;-80
2023/01/17 09:58:04;;;;;;;;;;;;;;;17.76;68.69;99535.59;7402619;19;1855;-79
2023/01/17 10:00:36;;;;;;;;;;;;;;;17.72;68.06;99529.72;7403242;19;1491;-79
2023/01/17 10:03:20;;;;;;;;;;;;;;;17.80;68.39;99536.97;7404054;19;1822;-79
2023/01/17 10:05:58;;;;;;;;;;;;;;;17.82;68.20;99530.44;7404392;19;2038;-80
2023/01/17 10:08:36;;;;;;;;;;;;;;;17.83;68.34;99516.13;7400763;19;1384;-79
2023/01/17 10:11:15;;;;;;;;;;;;;;;17.82;68.22;99519.75;7403442;19;1471;-79
2023/01/17 10:13:48;;;;;;;;;;;;;;;17.82;68.00;99519.75;7400232;19;1424;-80
2023/01/17 10:16:33;;;;;;;;;;;;;;;17.79;67.64;99524.59;7398308;19;1274;-79
2023/01/17 10:19:19;;;;;;;;;;;;;;;17.79;67.57;99524.59;7400324;19;1853;-79
2023/01/17 10:22:09;;;;;;;;;;;;;;;17.80;67.57;99523.59;7399543;19;1067;-79
2023/01/17 10:24:50;;;;;;;;;;;;;;;17.77;67.46;99530.09;7397727;19;2063;-79
2023/01/17 10:27:21;;;;;;;;;;;;;;;17.75;67.80;99521.41;7400856;19;1451;-79
2023/01/17 10:29:51;;;;;;;;;;;;;;;17.76;67.51;99528.41;7400912;19;1587;-79
2023/01/17 10:32:21;;;;;;;;;;;;;;;17.80;67.59;99528.94;7403158;19;1588;-79
2023/01/17 10:34:51;;;;;;;;;;;;;;;17.66;67.75;99519.66;7402263;19;1427;-80
2023/01/17 10:37:24;;;;;;;;;;;;;;;17.37;62.38;99525.28;7401582;19;1862;-81
2023/01/17 10:39:53;;;;;;;;;;;;;;;17.37;63.91;99534.16;7402999;19;1811;-81
2023/01/17 10:42:24;;;;;;;;;;;;;;;17.32;62.31;99527.59;7403023;19;1486;-80
2023/01/17 10:44:54;;;;;;;;;;;;;;;17.28;63.18;99527.06;7403083;19;1611;-81
2023/01/17 10:47:23;;;;;;;;;;;;;;;17.21;61.91;99517.97;7402765;19;1589;-81
2023/01/17 11:01:36;;;;;;;;;;;;;;;16.73;62.73;99516.50;7401638;19;1522;-80
2023/01/17 11:04:05;;;;;;;;;;;;;;;16.77;64.18;99521.41;7402379;19;1587;-80
2023/01/17 11:06:37;;;;;;;;;;;;;;;16.73;63.92;99519.19;7403803;19;1093;-80
2023/01/17 11:09:09;;;;;;;;;;;;;;;16.61;64.30;99511.41;7400502;19;1542;-80
2023/01/17 11:11:46;;;;;;;;;;;;;;;16.59;64.56;99516.06;7403833;19;1532;-81
2023/01/17 11:14:18;;;;;;;;;;;;;;;16.70;64.50;99509.66;7402631;19;1602;-81
2023/01/17 11:16:59;;;;;;;;;;;;;;;16.70;64.32;99509.66;7403610;19;1677;-81
2023/01/17 11:19:31;;;;;;;;;;;;;;;16.71;64.37;99505.97;7401063;19;1824;-81
2023/01/17 11:22:03;;;;;;;;;;;;;;;16.68;63.87;99483.09;7404297;19;1092;-80
2023/01/17 11:24:33;;;;;;;;;;;;;;;16.62;64.47;99489.03;7401381;19;1518;-80
2023/01/17 11:27:02;;;;;;;;;;;;;;;16.50;63.28;99512.44;7401998;19;1486;-80
2023/01/17 11:29:33;;;;;;;;;;;;;;;16.52;63.14;99496.28;7398937;19;1486;-80
2023/01/17 11:32:17;;;;;;;;;;;;;;;16.49;61.79;99493.91;7399386;19;1602;-81
2023/01/17 11:35:06;;;;;;;;;;;;;;;16.47;63.18;99480.72;7401349;19;1582;-80
2023/01/17 11:37:34;;;;;;;;;;;;;;;16.44;63.35;99480.19;7406837;19;1853;-80
2023/01/17 11:40:08;;;;;;;;;;;;;;;16.47;63.15;99491.41;7408868;19;1609;-80
2023/01/17 11:42:37;;;;;;;;;;;;;;;16.24;62.52;99496.31;7410017;19;1678;-80
2023/01/17 11:45:20;;;;;;;;;;;;;;;16.13;63.12;99498.31;7409486;19;1697;-80
2023/01/17 11:47:49;;;;;;;;;;;;;;;16.06;62.21;99487.41;7409270;19;1507;-81
2023/01/17 11:50:27;;;;;;;;;;;;;;;16.19;61.09;99503.06;7409003;19;1403;-81
2023/01/17 11:53:06;;;;;;;;;;;;;;;16.00;61.04;99486.16;7409865;19;1112;-80
2023/01/17 11:55:34;;;;;;;;;;;;;;;15.99;59.84;99481.81;7407206;19;1736;-81
2023/01/17 11:58:02;;;;;;;;;;;;;;;16.19;61.19;99482.56;7406912;19;1811;-81
2023/01/17 12:00:36;;;;;;;;;;;;;;;16.16;60.95;99474.03;7414356;19;1317;-80
2023/01/17 12:03:14;;;;;;;;;;;;;;;16.05;60.56;99501.72;7408963;19;1488;-80
2023/01/17 12:05:52;;;;;;;;;;;;;;;15.99;58.86;99494.31;7408724;19;1462;-81
2023/01/17 12:08:26;;;;;;;;;;;;;;;16.00;58.07;99504.84;7407891;19;1391;-81
2023/01/17 12:11:01;;;;;;;;;;;;;;;16.05;59.01;99491.06;7407893;19;1324;-81
2023/01/17 12:16:30;;;;;;;;;;;;;;;15.91;57.91;99500.38;7409621;19;1356;-81
2023/01/17 12:19:04;;;;;;;;;;;;;;;15.88;58.54;99480.19;7407085;19;1838;-81
2023/01/17 12:21:41;;;;;;;;;;;;;;;15.91;59.31;99482.53;7408863;19;1158;-81
2023/01/17 12:24:28;;;;;;;;;;;;;;;15.90;58.94;99493.38;7406026;19;1725;-81
2023/01/17 12:27:02;;;;;;;;;;;;;;;15.83;59.09;99492.28;7408064;19;1457;-81
2023/01/17 12:29:43;;;;;;;;;;;;;;;15.84;58.06;99510.78;7405850;19;1657;-81
2023/01/17 12:32:19;;;;;;;;;;;;;;;15.94;57.53;99483.25;7407479;19;1673;-80
2023/01/17 12:34:52;;;;;;;;;;;;;;;15.91;58.90;99495.03;7407703;19;1654;-80
2023/01/17 12:37:28;;;;;;;;;;;;;;;15.96;59.53;99489.28;7404623;19;1408;-80
2023/01/17 12:39:59;;;;;;;;;;;;;;;15.98;60.44;99489.97;7404692;19;1855;-80
2023/01/17 12:42:29;;;;;;;;;;;;;;;15.88;58.86;99482.84;7405410;19;1711;-80
2023/01/17 12:45:01;;;;;;;;;;;;;;;15.90;59.39;99488.88;7407967;19;1656;-80
2023/01/17 12:47:29;;;;;;;;;;;;;;;16.05;60.28;99467.06;7406448;19;1479;-81
2023/01/17 12:50:02;;;;;;;;;;;;;;;16.17;59.99;99483.69;7404950;19;1641;-80
2023/01/17 12:52:38;;;;;;;;;;;;;;;15.95;59.20;99491.09;7407520;19;1644;-80
2023/01/17 12:55:11;;;;;;;;;;;;;;;15.64;60.55;99482.50;7405222;19;1733;-80
2023/01/17 12:57:42;;;;;;;;;;;;;;;15.90;60.37;99491.53;7407581;19;1819;-80
2023/01/17 13:00:18;;;;;;;;;;;;;;;16.01;59.56;99497.66;7405020;19;1835;-80
2023/01/17 13:02:49;;;;;;;;;;;;;;;16.17;59.47;99484.53;7404726;19;1405;-80
2023/01/17 13:05:22;;;;;;;;;;;;;;;16.20;59.87;99489.59;7407530;19;1435;-80
2023/01/17 13:07:58;;;;;;;;;;;;;;;16.25;60.20;99482.00;7407238;19;1017;-80
2023/01/17 13:10:30;;;;;;;;;;;;;;;16.23;60.66;99485.78;7406819;19;1535;-80
2023/01/17 13:13:01;;;;;;;;;;;;;;;16.26;60.72;99505.00;7406262;19;1666;-81
2023/01/17 13:15:34;;;;;;;;;;;;;;;16.24;61.00;99504.31;7405039;19;1730;-80
2023/01/17 13:18:08;;;;;;;;;;;;;;;16.27;61.38;99501.34;7407012;19;1845;-80
2023/01/17 13:20:47;;;;;;;;;;;;;;;16.28;61.40;99492.34;7407058;19;1540;-80
2023/01/17 13:23:29;;;;;;;;;;;;;;;16.31;61.30;99507.19;7406752;19;1516;-80
2023/01/17 13:26:00;;;;;;;;;;;;;;;16.30;61.62;99493.03;7406447;19;1260;-81
2023/01/17 13:28:37;;;;;;;;;;;;;;;16.31;61.54;99499.19;7406645;19;1004;-81
2023/01/17 13:31:14;;;;;;;;;;;;;;;16.32;61.68;99494.72;7406707;19;1201;-81
2023/01/17 13:33:59;;;;;;;;;;;;;;;16.32;62.13;99500.91;7407586;19;1112;-81
2023/01/17 13:36:41;;;;;;;;;;;;;;;16.29;61.85;99499.38;7406018;19;1024;-81
2023/01/17 13:39:21;;;;;;;;;;;;;;;16.26;62.18;99493.50;7405077;19;1850;-81
2023/01/17 13:41:52;;;;;;;;;;;;;;;16.30;62.38;99503.72;7404437;19;1668;-81
2023/01/17 13:44:23;;;;;;;;;;;;;;;16.28;62.64;99497.69;7403695;19;1589;-80
2023/01/17 13:46:59;;;;;;;;;;;;;;;16.96;60.99;99490.25;7402236;19;1645;-80
2023/01/17 13:49:35;;;;;;;;;;;;;;;17.92;58.88;99492.94;7403691;19;1503;-80
2023/01/17 13:52:03;;;;;;;;;;;;;;;18.95;56.54;99492.78;7404741;19;1702;-81
2023/01/17 13:54:35;;;;;;;;;;;;;;;19.37;55.31;99489.09;7401254;19;1529;-81
2023/01/17 13:57:18;;;;;;;;;;;;;;;19.83;54.74;99486.66;7403155;19;1657;-80
2023/01/17 13:59:46;;;;;;;;;;;;;;;19.88;54.30;99485.34;7396690;19;1856;-81
2023/01/17 14:02:29;;;;;;;;;;;;;;;19.82;54.46;99482.34;7402295;19;2045;-81
2023/01/17 14:05:08;;;;;;;;;;;;;;;19.71;55.13;99495.25;7403233;19;1689;-81
2023/01/17 14:07:38;;;;;;;;;;;;;;;19.72;55.16;99464.78;7403982;19;1566;-81
2023/01/17 14:10:24;;;;;;;;;;;;;;;19.64;55.38;99469.09;7404486;19;1531;-81
2023/01/17 14:12:52;;;;;;;;;;;;;;;19.30;56.77;99484.56;7403403;19;1797;-81
2023/01/17 14:15:22;;;;;;;;;;;;;;;18.55;59.07;99474.78;7403866;19;1660;-81
2023/01/17 14:17:54;;;;;;;;;;;;;;;18.00;60.28;99474.25;7403223;19;1509;-81
2023/01/17 14:20:37;;;;;;;;;;;;;;;17.66;61.37;99471.53;7403174;19;1867;-81
2023/01/17 14:23:16;;;;;;;;;;;;;;;17.47;61.69;99473.44;7400047;19;1134;-81
2023/01/17 14:25:47;;;;;;;;;;;;;;;17.30;62.80;99493.03;7405132;19;1085;-81
2023/01/17 14:28:23;;;;;;;;;;;;;;;17.23;62.88;99487.47;7404736;19;1558;-81
2023/01/17 14:30:54;;;;;;;;;;;;;;;17.16;63.21;99490.91;7404345;19;1733;-80
2023/01/17 14:33:28;;;;;;;;;;;;;;;17.08;63.29;99483.66;7402765;19;1619;-81
2023/01/17 14:35:58;;;;;;;;;;;;;;;17.01;63.84;99495.94;7401555;19;1800;-80
2023/01/17 14:38:27;;;;;;;;;;;;;;;16.98;63.65;99499.75;7402594;19;1846;-81
2023/01/17 14:40:59;;;;;;;;;;;;;;;16.93;63.68;99496.72;7404640;19;1308;-80
2023/01/17 14:43:31;;;;;;;;;;;;;;;17.04;63.09;99512.50;7401651;19;1482;-81
2023/01/17 14:46:02;;;;;;;;;;;;;;;17.04;63.85;99512.50;7402607;19;1607;-81
2023/01/17 14:48:30;;;;;;;;;;;;;;;17.01;64.59;99499.47;7401877;19;1589;-81
2023/01/17 14:51:00;;;;;;;;;;;;;;;17.47;63.39;99497.50;7403931;19;1661;-80
2023/01/17 14:53:30;;;;;;;;;;;;;;;18.18;61.41;99508.94;7399522;19;1418;-81
2023/01/17 14:56:02;;;;;;;;;;;;;;;19.07;59.74;99482.56;7401761;19;1661;-80